sensor_id;sensor_type;location;lat;lon;timestamp;P1;durP1;ratioP1;P2;durP2;ratioP2
45466;SDS011;31212;49.734;8.490;2023-04-06T00:02:09;9.50;;;2.80;;
45466;SDS011;31212;49.734;8.490;2023-04-06T00:04:35;3.37;;;2.63;;
45466;SDS011;31212;49.734;8.490;2023-04-06T00:07:02;3.43;;;1.83;;
45466;SDS011;31212;49.734;8.490;2023-04-06T00:09:29;7.53;;;2.73;;
45466;SDS011;31212;49.734;8.490;2023-04-06T00:11:57;5.77;;;2.37;;
45466;SDS011;31212;49.734;8.490;2023-04-06T00:14:23;3.63;;;1.97;;
45466;SDS011;31212;49.734;8.490;2023-04-06T00:16:50;3.60;;;2.40;;
45466;SDS011;31212;49.734;8.490;2023-04-06T00:19:16;3.93;;;2.40;;
45466;SDS011;31212;49.734;8.490;2023-04-06T00:21:43;2.70;;;2.30;;
45466;SDS011;31212;49.734;8.490;2023-04-06T00:24:09;4.30;;;2.27;;
45466;SDS011;31212;49.734;8.490;2023-04-06T00:26:36;6.00;;;2.90;;
45466;SDS011;31212;49.734;8.490;2023-04-06T00:29:04;4.40;;;2.70;;
45466;SDS011;31212;49.734;8.490;2023-04-06T00:31:30;3.07;;;2.23;;
45466;SDS011;31212;49.734;8.490;2023-04-06T00:33:57;10.03;;;3.03;;
45466;SDS011;31212;49.734;8.490;2023-04-06T00:36:24;11.13;;;2.33;;
45466;SDS011;31212;49.734;8.490;2023-04-06T00:38:51;9.53;;;2.47;;
45466;SDS011;31212;49.734;8.490;2023-04-06T00:41:17;2.53;;;2.10;;
45466;SDS011;31212;49.734;8.490;2023-04-06T00:43:45;3.83;;;2.27;;
45466;SDS011;31212;49.734;8.490;2023-04-06T00:46:13;4.07;;;2.63;;
45466;SDS011;31212;49.734;8.490;2023-04-06T00:48:40;5.83;;;3.07;;
45466;SDS011;31212;49.734;8.490;2023-04-06T00:51:06;6.87;;;2.63;;
45466;SDS011;31212;49.734;8.490;2023-04-06T00:53:33;3.80;;;2.00;;
45466;SDS011;31212;49.734;8.490;2023-04-06T00:56:00;4.33;;;2.90;;
45466;SDS011;31212;49.734;8.490;2023-04-06T00:58:32;4.90;;;2.58;;
45466;SDS011;31212;49.734;8.490;2023-04-06T01:01:05;5.15;;;3.25;;
45466;SDS011;31212;49.734;8.490;2023-04-06T01:03:34;5.73;;;2.47;;
45466;SDS011;31212;49.734;8.490;2023-04-06T01:06:02;5.63;;;2.77;;
45466;SDS011;31212;49.734;8.490;2023-04-06T01:11:27;4.97;;;2.83;;
45466;SDS011;31212;49.734;8.490;2023-04-06T01:13:55;3.13;;;2.57;;
45466;SDS011;31212;49.734;8.490;2023-04-06T01:16:48;8.55;;;3.50;;
45466;SDS011;31212;49.734;8.490;2023-04-06T01:19:19;4.27;;;3.03;;
45466;SDS011;31212;49.734;8.490;2023-04-06T01:24:31;12.30;;;2.80;;
45466;SDS011;31212;49.734;8.490;2023-04-06T01:27:16;8.40;;;3.50;;
45466;SDS011;31212;49.734;8.490;2023-04-06T01:29:58;7.13;;;3.20;;
45466;SDS011;31212;49.734;8.490;2023-04-06T01:32:54;4.00;;;2.50;;
45466;SDS011;31212;49.734;8.490;2023-04-06T01:35:31;3.10;;;2.30;;
45466;SDS011;31212;49.734;8.490;2023-04-06T01:38:09;3.40;;;1.80;;
45466;SDS011;31212;49.734;8.490;2023-04-06T01:40:37;15.47;;;2.20;;
45466;SDS011;31212;49.734;8.490;2023-04-06T01:43:05;2.53;;;1.90;;
45466;SDS011;31212;49.734;8.490;2023-04-06T01:45:38;3.30;;;2.67;;
45466;SDS011;31212;49.734;8.490;2023-04-06T01:48:16;3.07;;;1.63;;
45466;SDS011;31212;49.734;8.490;2023-04-06T01:50:43;4.33;;;2.70;;
45466;SDS011;31212;49.734;8.490;2023-04-06T01:53:13;5.77;;;1.97;;
45466;SDS011;31212;49.734;8.490;2023-04-06T01:55:43;5.07;;;2.00;;
45466;SDS011;31212;49.734;8.490;2023-04-06T01:58:18;3.17;;;2.40;;
45466;SDS011;31212;49.734;8.490;2023-04-06T02:00:45;4.13;;;1.53;;
45466;SDS011;31212;49.734;8.490;2023-04-06T02:03:12;6.43;;;2.60;;
45466;SDS011;31212;49.734;8.490;2023-04-06T02:05:39;5.63;;;2.70;;
45466;SDS011;31212;49.734;8.490;2023-04-06T02:08:22;2.40;;;2.15;;
45466;SDS011;31212;49.734;8.490;2023-04-06T02:10:49;10.40;;;2.53;;
45466;SDS011;31212;49.734;8.490;2023-04-06T02:13:25;5.73;;;1.60;;
45466;SDS011;31212;49.734;8.490;2023-04-06T02:15:53;2.97;;;2.40;;
45466;SDS011;31212;49.734;8.490;2023-04-06T02:18:20;6.77;;;2.17;;
45466;SDS011;31212;49.734;8.490;2023-04-06T02:20:47;4.60;;;2.13;;
45466;SDS011;31212;49.734;8.490;2023-04-06T02:23:14;3.03;;;2.10;;
45466;SDS011;31212;49.734;8.490;2023-04-06T02:25:40;4.57;;;2.20;;
45466;SDS011;31212;49.734;8.490;2023-04-06T02:28:08;4.73;;;2.97;;
45466;SDS011;31212;49.734;8.490;2023-04-06T02:30:35;3.07;;;2.10;;
45466;SDS011;31212;49.734;8.490;2023-04-06T02:33:03;6.47;;;2.60;;
45466;SDS011;31212;49.734;8.490;2023-04-06T02:35:38;6.03;;;3.80;;
45466;SDS011;31212;49.734;8.490;2023-04-06T02:38:04;14.20;;;2.53;;
45466;SDS011;31212;49.734;8.490;2023-04-06T02:40:31;8.10;;;3.63;;
45466;SDS011;31212;49.734;8.490;2023-04-06T02:43:05;9.17;;;5.90;;
45466;SDS011;31212;49.734;8.490;2023-04-06T02:45:33;10.80;;;4.10;;
45466;SDS011;31212;49.734;8.490;2023-04-06T02:48:00;4.57;;;3.30;;
45466;SDS011;31212;49.734;8.490;2023-04-06T02:50:29;5.13;;;2.20;;
45466;SDS011;31212;49.734;8.490;2023-04-06T02:52:59;2.53;;;2.33;;
45466;SDS011;31212;49.734;8.490;2023-04-06T02:55:26;3.57;;;2.77;;
45466;SDS011;31212;49.734;8.490;2023-04-06T02:57:53;2.43;;;1.87;;
45466;SDS011;31212;49.734;8.490;2023-04-06T03:00:25;4.45;;;2.47;;
45466;SDS011;31212;49.734;8.490;2023-04-06T03:02:53;5.97;;;2.17;;
45466;SDS011;31212;49.734;8.490;2023-04-06T03:05:20;2.77;;;1.93;;
45466;SDS011;31212;49.734;8.490;2023-04-06T03:07:46;6.47;;;3.27;;
45466;SDS011;31212;49.734;8.490;2023-04-06T03:10:22;5.07;;;2.00;;
45466;SDS011;31212;49.734;8.490;2023-04-06T03:12:48;12.60;;;3.27;;
45466;SDS011;31212;49.734;8.490;2023-04-06T03:15:18;3.17;;;2.33;;
45466;SDS011;31212;49.734;8.490;2023-04-06T03:17:50;5.07;;;2.63;;
45466;SDS011;31212;49.734;8.490;2023-04-06T03:20:35;3.63;;;3.33;;
45466;SDS011;31212;49.734;8.490;2023-04-06T03:23:02;6.33;;;3.10;;
45466;SDS011;31212;49.734;8.490;2023-04-06T03:25:33;4.57;;;3.17;;
45466;SDS011;31212;49.734;8.490;2023-04-06T03:28:03;3.03;;;1.93;;
45466;SDS011;31212;49.734;8.490;2023-04-06T03:30:33;6.80;;;2.03;;
45466;SDS011;31212;49.734;8.490;2023-04-06T03:33:00;3.30;;;2.33;;
45466;SDS011;31212;49.734;8.490;2023-04-06T03:35:31;5.30;;;2.80;;
45466;SDS011;31212;49.734;8.490;2023-04-06T03:37:59;3.40;;;2.30;;
45466;SDS011;31212;49.734;8.490;2023-04-06T03:40:26;4.10;;;2.20;;
45466;SDS011;31212;49.734;8.490;2023-04-06T03:42:52;4.03;;;2.47;;
45466;SDS011;31212;49.734;8.490;2023-04-06T03:45:19;3.90;;;1.93;;
45466;SDS011;31212;49.734;8.490;2023-04-06T03:47:49;5.23;;;3.10;;
45466;SDS011;31212;49.734;8.490;2023-04-06T03:50:16;5.07;;;3.03;;
45466;SDS011;31212;49.734;8.490;2023-04-06T03:52:43;3.47;;;2.53;;
45466;SDS011;31212;49.734;8.490;2023-04-06T03:55:12;2.53;;;1.60;;
45466;SDS011;31212;49.734;8.490;2023-04-06T03:57:38;3.70;;;2.27;;
45466;SDS011;31212;49.734;8.490;2023-04-06T04:00:05;3.57;;;2.20;;
45466;SDS011;31212;49.734;8.490;2023-04-06T04:02:38;5.67;;;3.00;;
45466;SDS011;31212;49.734;8.490;2023-04-06T04:05:05;8.70;;;3.73;;
45466;SDS011;31212;49.734;8.490;2023-04-06T04:07:32;7.60;;;3.10;;
45466;SDS011;31212;49.734;8.490;2023-04-06T04:09:59;5.70;;;3.43;;
45466;SDS011;31212;49.734;8.490;2023-04-06T04:12:27;9.13;;;3.60;;
45466;SDS011;31212;49.734;8.490;2023-04-06T04:14:55;1.77;;;1.57;;
45466;SDS011;31212;49.734;8.490;2023-04-06T04:17:22;7.77;;;4.33;;
45466;SDS011;31212;49.734;8.490;2023-04-06T04:19:48;9.93;;;3.20;;
45466;SDS011;31212;49.734;8.490;2023-04-06T04:22:16;2.97;;;2.37;;
45466;SDS011;31212;49.734;8.490;2023-04-06T04:24:43;4.13;;;2.97;;
45466;SDS011;31212;49.734;8.490;2023-04-06T04:27:10;2.73;;;2.17;;
45466;SDS011;31212;49.734;8.490;2023-04-06T04:29:39;6.03;;;2.83;;
45466;SDS011;31212;49.734;8.490;2023-04-06T04:32:09;4.47;;;2.77;;
45466;SDS011;31212;49.734;8.490;2023-04-06T04:34:36;8.80;;;3.27;;
45466;SDS011;31212;49.734;8.490;2023-04-06T04:37:06;4.13;;;3.23;;
45466;SDS011;31212;49.734;8.490;2023-04-06T04:39:54;5.57;;;3.83;;
45466;SDS011;31212;49.734;8.490;2023-04-06T04:42:20;4.43;;;2.70;;
45466;SDS011;31212;49.734;8.490;2023-04-06T04:44:52;4.87;;;2.17;;
45466;SDS011;31212;49.734;8.490;2023-04-06T04:47:30;5.77;;;4.63;;
45466;SDS011;31212;49.734;8.490;2023-04-06T04:49:58;3.43;;;2.77;;
45466;SDS011;31212;49.734;8.490;2023-04-06T04:52:24;7.90;;;2.20;;
45466;SDS011;31212;49.734;8.490;2023-04-06T04:55:09;4.43;;;3.33;;
45466;SDS011;31212;49.734;8.490;2023-04-06T04:57:36;4.00;;;2.60;;
45466;SDS011;31212;49.734;8.490;2023-04-06T05:00:06;4.83;;;2.67;;
45466;SDS011;31212;49.734;8.490;2023-04-06T05:02:35;9.50;;;4.77;;
45466;SDS011;31212;49.734;8.490;2023-04-06T05:05:11;6.07;;;3.40;;
45466;SDS011;31212;49.734;8.490;2023-04-06T05:07:39;5.80;;;2.27;;
45466;SDS011;31212;49.734;8.490;2023-04-06T05:10:09;7.77;;;3.00;;
45466;SDS011;31212;49.734;8.490;2023-04-06T05:12:46;3.40;;;2.60;;
45466;SDS011;31212;49.734;8.490;2023-04-06T05:15:14;5.20;;;2.70;;
45466;SDS011;31212;49.734;8.490;2023-04-06T05:17:41;5.30;;;2.60;;
45466;SDS011;31212;49.734;8.490;2023-04-06T05:20:10;8.77;;;3.10;;
45466;SDS011;31212;49.734;8.490;2023-04-06T05:22:44;3.80;;;2.17;;
45466;SDS011;31212;49.734;8.490;2023-04-06T05:25:11;3.47;;;2.23;;
45466;SDS011;31212;49.734;8.490;2023-04-06T05:27:41;4.63;;;2.67;;
45466;SDS011;31212;49.734;8.490;2023-04-06T05:30:24;3.13;;;2.13;;
45466;SDS011;31212;49.734;8.490;2023-04-06T05:32:51;9.37;;;3.67;;
45466;SDS011;31212;49.734;8.490;2023-04-06T05:35:19;5.30;;;2.93;;
45466;SDS011;31212;49.734;8.490;2023-04-06T05:37:49;7.90;;;3.70;;
45466;SDS011;31212;49.734;8.490;2023-04-06T05:40:19;2.10;;;1.70;;
45466;SDS011;31212;49.734;8.490;2023-04-06T05:42:46;3.50;;;2.47;;
45466;SDS011;31212;49.734;8.490;2023-04-06T05:45:14;2.60;;;2.13;;
45466;SDS011;31212;49.734;8.490;2023-04-06T05:47:50;2.30;;;2.10;;
45466;SDS011;31212;49.734;8.490;2023-04-06T05:50:22;3.73;;;1.97;;
45466;SDS011;31212;49.734;8.490;2023-04-06T05:52:50;4.67;;;2.60;;
45466;SDS011;31212;49.734;8.490;2023-04-06T05:55:20;3.30;;;2.63;;
45466;SDS011;31212;49.734;8.490;2023-04-06T05:57:53;4.00;;;3.60;;
45466;SDS011;31212;49.734;8.490;2023-04-06T06:00:20;4.33;;;3.23;;
45466;SDS011;31212;49.734;8.490;2023-04-06T06:02:58;9.00;;;4.17;;
45466;SDS011;31212;49.734;8.490;2023-04-06T06:05:28;3.73;;;2.70;;
45466;SDS011;31212;49.734;8.490;2023-04-06T06:07:59;6.57;;;3.50;;
45466;SDS011;31212;49.734;8.490;2023-04-06T06:10:27;7.33;;;3.50;;
45466;SDS011;31212;49.734;8.490;2023-04-06T06:12:54;8.17;;;3.80;;
45466;SDS011;31212;49.734;8.490;2023-04-06T06:15:22;15.60;;;4.93;;
45466;SDS011;31212;49.734;8.490;2023-04-06T06:17:48;14.00;;;5.13;;
45466;SDS011;31212;49.734;8.490;2023-04-06T06:20:17;11.00;;;6.07;;
45466;SDS011;31212;49.734;8.490;2023-04-06T06:22:44;5.30;;;3.90;;
45466;SDS011;31212;49.734;8.490;2023-04-06T06:25:16;8.20;;;4.87;;
45466;SDS011;31212;49.734;8.490;2023-04-06T06:27:44;9.52;;;4.57;;
45466;SDS011;31212;49.734;8.490;2023-04-06T06:30:12;9.23;;;4.03;;
45466;SDS011;31212;49.734;8.490;2023-04-06T06:32:40;15.20;;;3.20;;
45466;SDS011;31212;49.734;8.490;2023-04-06T06:35:08;20.02;;;5.53;;
45466;SDS011;31212;49.734;8.490;2023-04-06T06:37:36;12.02;;;4.97;;
45466;SDS011;31212;49.734;8.490;2023-04-06T06:40:04;15.32;;;5.35;;
45466;SDS011;31212;49.734;8.490;2023-04-06T06:42:33;8.90;;;4.15;;
45466;SDS011;31212;49.734;8.490;2023-04-06T06:45:10;13.38;;;4.53;;
45466;SDS011;31212;49.734;8.490;2023-04-06T06:47:36;8.38;;;4.90;;
45466;SDS011;31212;49.734;8.490;2023-04-06T06:50:03;8.85;;;3.90;;
45466;SDS011;31212;49.734;8.490;2023-04-06T06:52:31;12.38;;;4.03;;
45466;SDS011;31212;49.734;8.490;2023-04-06T06:55:00;4.63;;;3.63;;
45466;SDS011;31212;49.734;8.490;2023-04-06T06:57:27;8.10;;;4.43;;
45466;SDS011;31212;49.734;8.490;2023-04-06T06:59:54;8.95;;;4.30;;
45466;SDS011;31212;49.734;8.490;2023-04-06T07:02:21;6.28;;;4.00;;
45466;SDS011;31212;49.734;8.490;2023-04-06T07:04:47;6.75;;;4.97;;
45466;SDS011;31212;49.734;8.490;2023-04-06T07:07:14;7.25;;;4.57;;
45466;SDS011;31212;49.734;8.490;2023-04-06T07:09:41;7.70;;;4.85;;
45466;SDS011;31212;49.734;8.490;2023-04-06T07:12:08;6.75;;;4.30;;
45466;SDS011;31212;49.734;8.490;2023-04-06T07:14:35;7.53;;;4.25;;
45466;SDS011;31212;49.734;8.490;2023-04-06T07:17:02;8.45;;;4.45;;
45466;SDS011;31212;49.734;8.490;2023-04-06T07:19:29;7.25;;;4.15;;
45466;SDS011;31212;49.734;8.490;2023-04-06T07:21:55;10.77;;;4.68;;
45466;SDS011;31212;49.734;8.490;2023-04-06T07:24:22;8.50;;;4.38;;
45466;SDS011;31212;49.734;8.490;2023-04-06T07:26:48;10.30;;;4.38;;
45466;SDS011;31212;49.734;8.490;2023-04-06T07:29:17;8.55;;;4.50;;
45466;SDS011;31212;49.734;8.490;2023-04-06T07:31:44;8.07;;;4.13;;
45466;SDS011;31212;49.734;8.490;2023-04-06T07:34:11;7.70;;;4.40;;
45466;SDS011;31212;49.734;8.490;2023-04-06T07:36:38;7.45;;;3.85;;
45466;SDS011;31212;49.734;8.490;2023-04-06T07:39:05;9.18;;;4.25;;
45466;SDS011;31212;49.734;8.490;2023-04-06T07:41:33;6.30;;;4.22;;
45466;SDS011;31212;49.734;8.490;2023-04-06T07:44:00;9.73;;;5.30;;
45466;SDS011;31212;49.734;8.490;2023-04-06T07:46:28;6.55;;;4.28;;
45466;SDS011;31212;49.734;8.490;2023-04-06T07:48:55;6.93;;;5.13;;
45466;SDS011;31212;49.734;8.490;2023-04-06T07:51:22;11.30;;;5.90;;
45466;SDS011;31212;49.734;8.490;2023-04-06T07:53:49;9.20;;;5.63;;
45466;SDS011;31212;49.734;8.490;2023-04-06T07:56:16;7.65;;;4.85;;
45466;SDS011;31212;49.734;8.490;2023-04-06T07:58:43;8.95;;;5.22;;
45466;SDS011;31212;49.734;8.490;2023-04-06T08:01:09;13.02;;;5.82;;
45466;SDS011;31212;49.734;8.490;2023-04-06T08:03:37;11.30;;;5.65;;
45466;SDS011;31212;49.734;8.490;2023-04-06T08:06:04;10.32;;;6.32;;
45466;SDS011;31212;49.734;8.490;2023-04-06T08:08:31;13.73;;;4.80;;
45466;SDS011;31212;49.734;8.490;2023-04-06T08:10:58;8.85;;;5.22;;
45466;SDS011;31212;49.734;8.490;2023-04-06T08:13:24;14.60;;;5.95;;
45466;SDS011;31212;49.734;8.490;2023-04-06T08:15:50;10.25;;;5.35;;
45466;SDS011;31212;49.734;8.490;2023-04-06T08:18:18;9.20;;;5.80;;
45466;SDS011;31212;49.734;8.490;2023-04-06T08:20:46;8.85;;;6.00;;
45466;SDS011;31212;49.734;8.490;2023-04-06T08:23:13;9.00;;;5.07;;
45466;SDS011;31212;49.734;8.490;2023-04-06T08:25:40;7.35;;;4.93;;
45466;SDS011;31212;49.734;8.490;2023-04-06T08:28:08;11.38;;;5.63;;
45466;SDS011;31212;49.734;8.490;2023-04-06T08:30:34;9.43;;;5.00;;
45466;SDS011;31212;49.734;8.490;2023-04-06T08:33:02;7.40;;;4.72;;
45466;SDS011;31212;49.734;8.490;2023-04-06T08:35:28;7.63;;;4.63;;
45466;SDS011;31212;49.734;8.490;2023-04-06T08:37:56;6.95;;;4.53;;
45466;SDS011;31212;49.734;8.490;2023-04-06T08:40:23;11.55;;;5.57;;
45466;SDS011;31212;49.734;8.490;2023-04-06T08:42:52;10.10;;;5.70;;
45466;SDS011;31212;49.734;8.490;2023-04-06T08:45:20;7.00;;;5.43;;
45466;SDS011;31212;49.734;8.490;2023-04-06T08:47:47;13.00;;;6.00;;
45466;SDS011;31212;49.734;8.490;2023-04-06T08:50:16;11.57;;;6.32;;
45466;SDS011;31212;49.734;8.490;2023-04-06T08:52:44;8.90;;;5.13;;
45466;SDS011;31212;49.734;8.490;2023-04-06T08:55:14;9.57;;;5.22;;
45466;SDS011;31212;49.734;8.490;2023-04-06T08:57:41;8.93;;;5.40;;
45466;SDS011;31212;49.734;8.490;2023-04-06T09:00:09;10.60;;;5.13;;
45466;SDS011;31212;49.734;8.490;2023-04-06T09:02:37;8.82;;;5.45;;
45466;SDS011;31212;49.734;8.490;2023-04-06T09:05:05;8.57;;;5.47;;
45466;SDS011;31212;49.734;8.490;2023-04-06T09:07:35;8.98;;;5.72;;
45466;SDS011;31212;49.734;8.490;2023-04-06T09:10:01;7.50;;;5.00;;
45466;SDS011;31212;49.734;8.490;2023-04-06T09:12:30;7.60;;;5.60;;
45466;SDS011;31212;49.734;8.490;2023-04-06T09:14:58;6.28;;;4.07;;
45466;SDS011;31212;49.734;8.490;2023-04-06T09:17:26;7.97;;;4.53;;
45466;SDS011;31212;49.734;8.490;2023-04-06T09:19:53;7.75;;;5.03;;
45466;SDS011;31212;49.734;8.490;2023-04-06T09:22:20;6.70;;;5.10;;
45466;SDS011;31212;49.734;8.490;2023-04-06T09:24:48;8.73;;;4.68;;
45466;SDS011;31212;49.734;8.490;2023-04-06T09:27:16;8.93;;;5.00;;
45466;SDS011;31212;49.734;8.490;2023-04-06T09:29:44;9.57;;;5.22;;
45466;SDS011;31212;49.734;8.490;2023-04-06T09:32:11;9.45;;;6.53;;
45466;SDS011;31212;49.734;8.490;2023-04-06T09:34:41;9.05;;;5.32;;
45466;SDS011;31212;49.734;8.490;2023-04-06T09:37:14;9.50;;;5.82;;
45466;SDS011;31212;49.734;8.490;2023-04-06T09:39:41;14.32;;;5.63;;
45466;SDS011;31212;49.734;8.490;2023-04-06T09:42:08;8.80;;;5.57;;
45466;SDS011;31212;49.734;8.490;2023-04-06T09:44:34;7.57;;;5.20;;
45466;SDS011;31212;49.734;8.490;2023-04-06T09:47:02;11.65;;;5.15;;
45466;SDS011;31212;49.734;8.490;2023-04-06T09:49:33;10.30;;;5.63;;
45466;SDS011;31212;49.734;8.490;2023-04-06T09:52:01;7.45;;;4.93;;
45466;SDS011;31212;49.734;8.490;2023-04-06T09:54:30;9.10;;;5.28;;
45466;SDS011;31212;49.734;8.490;2023-04-06T09:56:58;10.07;;;4.97;;
45466;SDS011;31212;49.734;8.490;2023-04-06T09:59:31;8.38;;;5.22;;
45466;SDS011;31212;49.734;8.490;2023-04-06T10:02:08;7.85;;;5.22;;
45466;SDS011;31212;49.734;8.490;2023-04-06T10:04:42;8.90;;;5.45;;
45466;SDS011;31212;49.734;8.490;2023-04-06T10:07:11;9.57;;;5.50;;
45466;SDS011;31212;49.734;8.490;2023-04-06T10:09:40;7.65;;;5.13;;
45466;SDS011;31212;49.734;8.490;2023-04-06T10:12:11;13.52;;;5.22;;
45466;SDS011;31212;49.734;8.490;2023-04-06T10:14:39;8.10;;;4.68;;
45466;SDS011;31212;49.734;8.490;2023-04-06T10:17:07;11.43;;;5.85;;
45466;SDS011;31212;49.734;8.490;2023-04-06T10:19:36;10.90;;;5.38;;
45466;SDS011;31212;49.734;8.490;2023-04-06T10:22:06;7.45;;;4.60;;
45466;SDS011;31212;49.734;8.490;2023-04-06T10:24:36;10.80;;;5.95;;
45466;SDS011;31212;49.734;8.490;2023-04-06T10:27:03;11.68;;;5.65;;
45466;SDS011;31212;49.734;8.490;2023-04-06T10:29:41;10.98;;;6.22;;
45466;SDS011;31212;49.734;8.490;2023-04-06T10:32:10;12.88;;;5.95;;
45466;SDS011;31212;49.734;8.490;2023-04-06T10:34:37;12.43;;;6.22;;
45466;SDS011;31212;49.734;8.490;2023-04-06T10:37:10;10.07;;;5.63;;
45466;SDS011;31212;49.734;8.490;2023-04-06T10:39:45;11.20;;;5.32;;
45466;SDS011;31212;49.734;8.490;2023-04-06T10:42:12;9.20;;;5.78;;
45466;SDS011;31212;49.734;8.490;2023-04-06T10:44:41;7.00;;;4.68;;
45466;SDS011;31212;49.734;8.490;2023-04-06T10:47:15;10.23;;;5.63;;
45466;SDS011;31212;49.734;8.490;2023-04-06T10:49:43;8.38;;;4.07;;
45466;SDS011;31212;49.734;8.490;2023-04-06T10:52:10;20.38;;;5.85;;
45466;SDS011;31212;49.734;8.490;2023-04-06T10:54:38;11.05;;;6.07;;
45466;SDS011;31212;49.734;8.490;2023-04-06T10:57:08;9.55;;;5.32;;
45466;SDS011;31212;49.734;8.490;2023-04-06T10:59:35;12.10;;;5.90;;
45466;SDS011;31212;49.734;8.490;2023-04-06T11:02:01;7.55;;;4.10;;
45466;SDS011;31212;49.734;8.490;2023-04-06T11:04:29;10.70;;;5.60;;
45466;SDS011;31212;49.734;8.490;2023-04-06T11:06:56;9.88;;;5.32;;
45466;SDS011;31212;49.734;8.490;2023-04-06T11:09:23;9.00;;;4.90;;
45466;SDS011;31212;49.734;8.490;2023-04-06T11:11:51;9.20;;;4.70;;
45466;SDS011;31212;49.734;8.490;2023-04-06T11:14:19;9.18;;;4.40;;
45466;SDS011;31212;49.734;8.490;2023-04-06T11:16:46;16.67;;;5.38;;
45466;SDS011;31212;49.734;8.490;2023-04-06T11:19:13;6.25;;;4.00;;
45466;SDS011;31212;49.734;8.490;2023-04-06T11:21:42;7.63;;;3.42;;
45466;SDS011;31212;49.734;8.490;2023-04-06T11:24:13;7.60;;;3.92;;
45466;SDS011;31212;49.734;8.490;2023-04-06T11:26:41;11.27;;;5.47;;
45466;SDS011;31212;49.734;8.490;2023-04-06T11:29:10;6.22;;;4.22;;
45466;SDS011;31212;49.734;8.490;2023-04-06T11:31:37;9.60;;;4.65;;
45466;SDS011;31212;49.734;8.490;2023-04-06T11:34:09;10.52;;;4.35;;
45466;SDS011;31212;49.734;8.490;2023-04-06T11:36:36;11.23;;;6.72;;
45466;SDS011;31212;49.734;8.490;2023-04-06T11:39:07;8.88;;;5.05;;
45466;SDS011;31212;49.734;8.490;2023-04-06T11:41:34;9.63;;;4.50;;
45466;SDS011;31212;49.734;8.490;2023-04-06T11:44:01;11.32;;;5.22;;
45466;SDS011;31212;49.734;8.490;2023-04-06T11:46:28;8.55;;;4.30;;
45466;SDS011;31212;49.734;8.490;2023-04-06T11:48:57;10.10;;;5.10;;
45466;SDS011;31212;49.734;8.490;2023-04-06T11:51:24;11.70;;;6.32;;
45466;SDS011;31212;49.734;8.490;2023-04-06T11:53:51;10.18;;;4.53;;
45466;SDS011;31212;49.734;8.490;2023-04-06T11:56:25;8.63;;;4.65;;
45466;SDS011;31212;49.734;8.490;2023-04-06T11:58:56;9.32;;;4.60;;
45466;SDS011;31212;49.734;8.490;2023-04-06T12:01:24;10.93;;;3.88;;
45466;SDS011;31212;49.734;8.490;2023-04-06T12:03:52;6.38;;;3.80;;
45466;SDS011;31212;49.734;8.490;2023-04-06T12:06:18;11.45;;;3.78;;
45466;SDS011;31212;49.734;8.490;2023-04-06T12:08:45;9.43;;;4.25;;
45466;SDS011;31212;49.734;8.490;2023-04-06T12:11:12;7.90;;;4.72;;
45466;SDS011;31212;49.734;8.490;2023-04-06T12:13:40;9.30;;;4.10;;
45466;SDS011;31212;49.734;8.490;2023-04-06T12:16:06;7.00;;;4.07;;
45466;SDS011;31212;49.734;8.490;2023-04-06T12:18:33;9.07;;;4.45;;
45466;SDS011;31212;49.734;8.490;2023-04-06T12:20:59;11.18;;;4.03;;
45466;SDS011;31212;49.734;8.490;2023-04-06T12:23:26;6.90;;;4.25;;
45466;SDS011;31212;49.734;8.490;2023-04-06T12:25:52;9.02;;;4.07;;
45466;SDS011;31212;49.734;8.490;2023-04-06T12:28:19;8.73;;;4.18;;
45466;SDS011;31212;49.734;8.490;2023-04-06T12:30:50;5.72;;;4.00;;
45466;SDS011;31212;49.734;8.490;2023-04-06T12:33:16;13.52;;;4.40;;
45466;SDS011;31212;49.734;8.490;2023-04-06T12:35:43;7.20;;;4.28;;
45466;SDS011;31212;49.734;8.490;2023-04-06T12:38:09;7.55;;;4.35;;
45466;SDS011;31212;49.734;8.490;2023-04-06T12:40:36;7.75;;;3.90;;
45466;SDS011;31212;49.734;8.490;2023-04-06T12:43:04;10.13;;;4.03;;
45466;SDS011;31212;49.734;8.490;2023-04-06T12:45:31;9.43;;;4.47;;
45466;SDS011;31212;49.734;8.490;2023-04-06T12:47:59;8.90;;;4.63;;
45466;SDS011;31212;49.734;8.490;2023-04-06T12:50:26;8.70;;;4.53;;
45466;SDS011;31212;49.734;8.490;2023-04-06T12:52:52;7.50;;;4.00;;
45466;SDS011;31212;49.734;8.490;2023-04-06T12:55:19;6.93;;;4.18;;
45466;SDS011;31212;49.734;8.490;2023-04-06T12:57:46;10.02;;;3.88;;
45466;SDS011;31212;49.734;8.490;2023-04-06T13:00:13;7.38;;;3.78;;
45466;SDS011;31212;49.734;8.490;2023-04-06T13:02:40;7.22;;;3.58;;
45466;SDS011;31212;49.734;8.490;2023-04-06T13:05:12;9.73;;;4.78;;
45466;SDS011;31212;49.734;8.490;2023-04-06T13:07:43;10.87;;;4.00;;
45466;SDS011;31212;49.734;8.490;2023-04-06T13:10:10;6.40;;;3.70;;
45466;SDS011;31212;49.734;8.490;2023-04-06T13:12:36;9.88;;;4.20;;
45466;SDS011;31212;49.734;8.490;2023-04-06T13:15:03;7.93;;;4.25;;
45466;SDS011;31212;49.734;8.490;2023-04-06T13:17:30;10.48;;;4.97;;
45466;SDS011;31212;49.734;8.490;2023-04-06T13:19:57;10.00;;;4.82;;
45466;SDS011;31212;49.734;8.490;2023-04-06T13:22:25;7.15;;;4.55;;
45466;SDS011;31212;49.734;8.490;2023-04-06T13:24:51;9.50;;;4.00;;
45466;SDS011;31212;49.734;8.490;2023-04-06T13:27:18;9.82;;;4.47;;
45466;SDS011;31212;49.734;8.490;2023-04-06T13:29:45;7.30;;;4.10;;
45466;SDS011;31212;49.734;8.490;2023-04-06T13:32:11;6.80;;;4.05;;
45466;SDS011;31212;49.734;8.490;2023-04-06T13:34:38;10.48;;;5.00;;
45466;SDS011;31212;49.734;8.490;2023-04-06T13:37:05;7.38;;;4.45;;
45466;SDS011;31212;49.734;8.490;2023-04-06T13:39:33;6.47;;;4.13;;
45466;SDS011;31212;49.734;8.490;2023-04-06T13:41:59;7.20;;;3.83;;
45466;SDS011;31212;49.734;8.490;2023-04-06T13:44:27;8.40;;;4.22;;
45466;SDS011;31212;49.734;8.490;2023-04-06T13:46:54;7.55;;;4.25;;
45466;SDS011;31212;49.734;8.490;2023-04-06T13:49:20;11.82;;;4.55;;
45466;SDS011;31212;49.734;8.490;2023-04-06T13:51:47;12.38;;;4.68;;
45466;SDS011;31212;49.734;8.490;2023-04-06T13:54:13;10.38;;;4.80;;
45466;SDS011;31212;49.734;8.490;2023-04-06T13:56:41;7.65;;;3.80;;
45466;SDS011;31212;49.734;8.490;2023-04-06T13:59:07;8.50;;;4.88;;
45466;SDS011;31212;49.734;8.490;2023-04-06T14:01:34;8.95;;;4.25;;
45466;SDS011;31212;49.734;8.490;2023-04-06T14:04:00;7.80;;;4.30;;
45466;SDS011;31212;49.734;8.490;2023-04-06T14:06:27;6.93;;;3.72;;
45466;SDS011;31212;49.734;8.490;2023-04-06T14:08:53;7.72;;;4.35;;
45466;SDS011;31212;49.734;8.490;2023-04-06T14:11:20;8.25;;;3.92;;
45466;SDS011;31212;49.734;8.490;2023-04-06T14:13:48;5.65;;;3.20;;
45466;SDS011;31212;49.734;8.490;2023-04-06T14:16:15;5.78;;;3.47;;
45466;SDS011;31212;49.734;8.490;2023-04-06T14:18:44;4.82;;;2.78;;
45466;SDS011;31212;49.734;8.490;2023-04-06T14:21:10;6.43;;;3.60;;
45466;SDS011;31212;49.734;8.490;2023-04-06T14:23:37;8.25;;;3.72;;
45466;SDS011;31212;49.734;8.490;2023-04-06T14:26:04;6.28;;;3.25;;
45466;SDS011;31212;49.734;8.490;2023-04-06T14:28:31;5.13;;;3.15;;
45466;SDS011;31212;49.734;8.490;2023-04-06T14:31:00;5.60;;;3.53;;
45466;SDS011;31212;49.734;8.490;2023-04-06T14:33:27;6.72;;;3.50;;
45466;SDS011;31212;49.734;8.490;2023-04-06T14:35:55;7.00;;;3.55;;
45466;SDS011;31212;49.734;8.490;2023-04-06T14:38:22;5.53;;;3.30;;
45466;SDS011;31212;49.734;8.490;2023-04-06T14:40:48;7.65;;;3.65;;
45466;SDS011;31212;49.734;8.490;2023-04-06T14:43:15;7.05;;;3.42;;
45466;SDS011;31212;49.734;8.490;2023-04-06T14:45:42;6.15;;;2.75;;
45466;SDS011;31212;49.734;8.490;2023-04-06T14:48:09;6.15;;;2.90;;
45466;SDS011;31212;49.734;8.490;2023-04-06T14:50:37;5.47;;;3.25;;
45466;SDS011;31212;49.734;8.490;2023-04-06T14:53:04;5.32;;;3.15;;
45466;SDS011;31212;49.734;8.490;2023-04-06T14:55:31;7.07;;;3.10;;
45466;SDS011;31212;49.734;8.490;2023-04-06T14:57:57;9.15;;;4.63;;
45466;SDS011;31212;49.734;8.490;2023-04-06T15:00:24;7.47;;;3.28;;